createdAt,value
2022-08-04T00:00:07.191Z,3.33
2022-08-04T00:02:56.916Z,3.20
2022-08-04T00:05:30.942Z,3.13
2022-08-04T00:08:30.482Z,2.85
2022-08-04T00:11:00.204Z,2.60
2022-08-04T00:13:30.637Z,2.88
2022-08-04T00:16:06.360Z,3.13
2022-08-04T00:18:49.807Z,3.20
2022-08-04T00:21:22.194Z,3.50
2022-08-04T00:24:11.700Z,3.20
2022-08-04T00:26:36.908Z,3.03
2022-08-04T00:29:03.432Z,3.05
2022-08-04T00:31:54.382Z,3.20
2022-08-04T00:34:17.765Z,3.25
2022-08-04T00:36:45.604Z,3.10
2022-08-04T00:39:14.422Z,3.58
2022-08-04T00:42:11.124Z,3.10
2022-08-04T00:44:52.817Z,3.15
2022-08-04T00:50:24.568Z,2.80
2022-08-04T00:52:56.444Z,3.50
2022-08-04T00:55:43.031Z,3.22
2022-08-04T00:58:22.551Z,3.13
2022-08-04T01:01:02.042Z,3.50
2022-08-04T01:03:49.722Z,3.20
2022-08-04T01:06:56.427Z,3.50
2022-08-04T01:09:52.646Z,3.50
2022-08-04T01:12:28.360Z,3.35
2022-08-04T01:15:07.612Z,3.88
2022-08-04T01:17:52.815Z,3.38
2022-08-04T01:20:25.570Z,3.60
2022-08-04T01:23:16.137Z,3.85
2022-08-04T01:26:42.309Z,4.00
2022-08-04T01:29:14.912Z,4.00
2022-08-04T01:31:59.128Z,3.40
2022-08-04T01:34:31.375Z,3.83
2022-08-04T01:37:12.332Z,3.67
2022-08-04T01:39:50.636Z,4.03
2022-08-04T01:42:32.072Z,3.95
2022-08-04T01:45:02.401Z,3.78
2022-08-04T01:47:30.921Z,3.88
2022-08-04T01:50:15.684Z,4.22
2022-08-04T01:52:47.699Z,3.88
2022-08-04T01:55:18.096Z,3.80
2022-08-04T01:57:49.767Z,3.97
2022-08-04T02:00:22.449Z,3.35
2022-08-04T02:02:50.531Z,3.63
2022-08-04T02:05:19.536Z,3.67
2022-08-04T02:07:48.899Z,4.03
2022-08-04T02:10:28.961Z,3.35
2022-08-04T02:13:15.849Z,3.00
2022-08-04T02:15:57.420Z,3.10
2022-08-04T02:19:03.125Z,3.50
2022-08-04T02:21:42.620Z,3.17
2022-08-04T02:24:16.072Z,3.00
2022-08-04T02:26:47.226Z,3.42
2022-08-04T02:29:19.334Z,3.00
2022-08-04T02:32:06.387Z,3.17
2022-08-04T02:34:52.926Z,3.10
2022-08-04T02:37:21.230Z,3.70
2022-08-04T02:39:53.379Z,3.08
2022-08-04T02:42:20.381Z,3.10
2022-08-04T02:44:51.526Z,3.20
2022-08-04T02:47:21.836Z,3.20
2022-08-04T02:49:51.255Z,2.67
2022-08-04T02:52:19.443Z,3.20
2022-08-04T02:54:49.295Z,3.00
2022-08-04T02:57:18.635Z,3.00
2022-08-04T03:00:14.343Z,2.88
2022-08-04T03:03:13.958Z,3.08
2022-08-04T03:06:00.801Z,3.38
2022-08-04T03:09:00.303Z,3.25
2022-08-04T03:12:23.976Z,3.10
2022-08-04T03:15:09.625Z,2.95
2022-08-04T03:18:16.196Z,3.60
2022-08-04T03:21:15.224Z,3.10
2022-08-04T03:24:03.708Z,3.05
2022-08-04T03:26:52.911Z,3.10
2022-08-04T03:30:00.935Z,3.22
2022-08-04T03:32:49.824Z,3.00
2022-08-04T03:35:50.417Z,3.50
2022-08-04T03:38:55.022Z,3.13
2022-08-04T03:41:54.838Z,4.13
2022-08-04T03:44:46.016Z,3.00
2022-08-04T03:47:42.334Z,3.47
2022-08-04T03:50:41.529Z,3.05
2022-08-04T03:53:33.080Z,3.15
2022-08-04T03:56:28.217Z,3.08
2022-08-04T03:59:24.563Z,3.00
2022-08-04T04:02:11.360Z,3.20
2022-08-04T04:05:12.095Z,3.10
2022-08-04T04:08:18.919Z,2.90
2022-08-04T04:11:20.104Z,3.58
2022-08-04T04:13:52.514Z,3.05
2022-08-04T04:16:28.124Z,2.90
2022-08-04T04:19:17.903Z,2.72
2022-08-04T04:22:03.719Z,2.67
2022-08-04T04:24:36.297Z,3.00
2022-08-04T04:27:21.620Z,2.90
2022-08-04T04:30:01.038Z,3.00
2022-08-04T04:32:49.551Z,2.90
2022-08-04T04:35:46.821Z,2.88
2022-08-04T04:38:44.363Z,2.90
2022-08-04T04:41:37.026Z,2.90
2022-08-04T04:44:42.888Z,2.83
2022-08-04T04:48:09.253Z,2.88
2022-08-04T04:50:37.046Z,2.92
2022-08-04T04:53:16.142Z,2.47
2022-08-04T04:55:48.492Z,3.00
2022-08-04T04:58:17.928Z,3.15
2022-08-04T05:00:55.892Z,3.53
2022-08-04T05:03:48.822Z,3.33
2022-08-04T05:06:29.457Z,3.08
2022-08-04T05:09:12.460Z,3.10
2022-08-04T05:12:00.314Z,4.10
2022-08-04T05:14:40.973Z,3.75
2022-08-04T05:17:26.050Z,3.80
2022-08-04T05:20:21.695Z,3.95
2022-08-04T05:22:58.282Z,3.90
2022-08-04T05:25:37.383Z,3.75
2022-08-04T05:28:10.781Z,3.40
2022-08-04T05:30:48.657Z,3.70
2022-08-04T05:33:29.247Z,4.05
2022-08-04T05:36:18.591Z,3.60
2022-08-04T05:38:51.297Z,3.80
2022-08-04T05:41:18.937Z,3.85
2022-08-04T05:43:46.801Z,3.60
2022-08-04T05:46:15.307Z,3.30
2022-08-04T05:48:43.680Z,3.92
2022-08-04T05:51:12.301Z,3.83
2022-08-04T05:53:42.922Z,4.40
2022-08-04T05:56:11.046Z,3.87
2022-08-04T05:58:38.501Z,3.85
2022-08-04T06:01:08.446Z,4.22
2022-08-04T06:03:37.443Z,3.53
2022-08-04T06:06:04.783Z,3.80
2022-08-04T06:08:31.587Z,4.20
2022-08-04T06:11:03.656Z,3.70
2022-08-04T06:13:46.773Z,3.42
2022-08-04T06:16:29.948Z,3.70
2022-08-04T06:20:03.932Z,3.80
2022-08-04T06:21:53.769Z,3.65
2022-08-04T06:24:24.903Z,3.80
2022-08-04T06:26:53.318Z,4.40
2022-08-04T06:29:26.846Z,3.83
2022-08-04T06:32:29.912Z,3.78
2022-08-04T06:37:12.263Z,4.18
2022-08-04T06:40:01.584Z,3.45
2022-08-04T06:42:29.366Z,3.80
2022-08-04T06:44:59.022Z,3.95
2022-08-04T06:47:27.031Z,3.67
2022-08-04T06:51:30.524Z,3.22
2022-08-04T06:52:44.488Z,2.67
2022-08-04T06:55:11.488Z,3.00
2022-08-04T06:57:40.304Z,2.88
2022-08-04T07:00:10.987Z,2.35
2022-08-04T07:02:52.791Z,2.25
2022-08-04T07:05:20.590Z,2.40
2022-08-04T07:07:57.440Z,2.72
2022-08-04T07:10:27.839Z,2.60
2022-08-04T07:12:56.456Z,1.95
2022-08-04T07:15:25.085Z,2.30
2022-08-04T07:17:52.642Z,2.38
2022-08-04T07:20:34.154Z,2.60
2022-08-04T07:23:05.762Z,2.30
2022-08-04T07:26:11.337Z,3.00
2022-08-04T07:28:23.268Z,2.28
2022-08-04T07:30:50.534Z,2.40
2022-08-04T07:33:18.265Z,2.38
2022-08-04T07:36:09.765Z,2.80
2022-08-04T07:38:48.621Z,2.75
2022-08-04T07:41:40.649Z,2.67
2022-08-04T07:44:09.076Z,2.65
2022-08-04T07:46:39.004Z,2.40
2022-08-04T07:49:06.128Z,2.90
2022-08-04T07:51:35.751Z,2.30
2022-08-04T07:54:05.641Z,2.78
2022-08-04T07:56:36.844Z,2.88
2022-08-04T07:59:04.644Z,2.47
2022-08-04T08:01:31.563Z,2.95
2022-08-04T08:03:58.850Z,2.45
2022-08-04T08:06:32.829Z,2.10
2022-08-04T08:09:12.328Z,2.00
2022-08-04T08:12:37.543Z,2.28
2022-08-04T08:14:30.344Z,2.72
2022-08-04T08:16:58.964Z,2.08
2022-08-04T08:19:25.477Z,2.15
2022-08-04T08:21:58.517Z,2.22
2022-08-04T08:24:28.446Z,2.53
2022-08-04T08:26:55.949Z,2.22
2022-08-04T08:29:23.209Z,2.33
2022-08-04T08:31:57.138Z,1.90
2022-08-04T08:34:27.995Z,2.25
2022-08-04T08:37:22.073Z,2.30
2022-08-04T08:39:59.427Z,2.15
2022-08-04T08:42:40.791Z,2.72
2022-08-04T08:48:13.041Z,3.67
2022-08-04T08:50:58.401Z,2.30
2022-08-04T08:53:56.138Z,2.15
2022-08-04T08:56:37.063Z,1.73
2022-08-04T08:59:31.910Z,1.95
2022-08-04T09:02:03.934Z,2.88
2022-08-04T09:04:48.708Z,1.98
2022-08-04T09:07:41.110Z,1.65
2022-08-04T09:10:33.078Z,2.13
2022-08-04T09:13:08.175Z,2.80
2022-08-04T09:16:07.981Z,2.70
2022-08-04T09:18:42.204Z,2.28
2022-08-04T09:21:42.135Z,2.33
2022-08-04T09:24:35.275Z,4.45
2022-08-04T09:27:08.167Z,2.40
2022-08-04T09:30:01.704Z,2.70
2022-08-04T09:32:41.932Z,2.50
2022-08-04T09:35:29.513Z,2.00
2022-08-04T09:38:26.279Z,2.50
2022-08-04T09:41:48.195Z,1.80
2022-08-04T09:44:50.181Z,2.22
2022-08-04T09:47:46.503Z,1.92
2022-08-04T09:50:37.490Z,1.87
2022-08-04T09:56:03.552Z,1.77
2022-08-04T10:01:24.259Z,1.83
2022-08-04T10:03:53.424Z,2.60
2022-08-04T10:06:25.924Z,2.03
2022-08-04T10:09:17.730Z,1.63
2022-08-04T10:11:55.854Z,1.83
2022-08-04T10:14:56.623Z,2.10
2022-08-04T10:17:39.417Z,1.80
2022-08-04T10:20:45.336Z,2.10
2022-08-04T10:23:55.699Z,2.20
2022-08-04T10:26:45.638Z,2.00
2022-08-04T10:29:26.262Z,1.90
2022-08-04T10:32:16.156Z,2.15
2022-08-04T10:35:14.462Z,2.05
2022-08-04T10:37:58.983Z,2.00
2022-08-04T10:40:48.380Z,1.60
2022-08-04T10:43:39.852Z,1.67
2022-08-04T10:49:32.323Z,1.98
2022-08-04T10:52:24.838Z,1.80
2022-08-04T10:55:23.533Z,1.80
2022-08-04T10:58:16.361Z,1.73
2022-08-04T11:00:45.778Z,1.77
2022-08-04T11:03:31.170Z,1.80
2022-08-04T11:06:03.692Z,1.40
2022-08-04T11:08:36.547Z,1.90
2022-08-04T11:11:12.685Z,1.95
2022-08-04T11:14:04.261Z,1.80
2022-08-04T11:16:46.610Z,2.25
2022-08-04T11:19:44.747Z,1.98
2022-08-04T11:22:28.400Z,1.80
2022-08-04T11:25:09.405Z,1.73
2022-08-04T11:27:44.650Z,1.38
2022-08-04T11:30:13.960Z,2.53
2022-08-04T11:33:20.938Z,1.85
2022-08-04T11:35:57.102Z,1.90
2022-08-04T11:38:42.470Z,1.67
2022-08-04T11:41:17.341Z,1.63
2022-08-04T11:44:00.800Z,1.77
2022-08-04T11:46:39.454Z,1.50
2022-08-04T11:49:11.827Z,1.67
2022-08-04T11:51:39.711Z,1.50
2022-08-04T11:54:07.255Z,1.50
2022-08-04T11:56:37.290Z,1.90
2022-08-04T11:59:07.597Z,1.73
2022-08-04T12:02:02.405Z,1.55
2022-08-04T12:04:45.237Z,1.60
2022-08-04T12:07:30.975Z,2.05
2022-08-04T12:10:40.911Z,2.00
2022-08-04T12:13:19.000Z,1.80
2022-08-04T12:16:22.267Z,1.85
2022-08-04T12:19:05.852Z,1.90
2022-08-04T12:21:55.655Z,2.08
2022-08-04T12:24:41.521Z,1.88
2022-08-04T12:27:15.675Z,1.85
2022-08-04T12:29:42.657Z,2.00
2022-08-04T12:32:36.742Z,1.90
2022-08-04T12:35:06.262Z,1.90
2022-08-04T12:37:43.990Z,1.90
2022-08-04T12:40:28.358Z,1.70
2022-08-04T12:43:05.748Z,1.77
2022-08-04T12:45:33.763Z,1.83
2022-08-04T12:48:01.764Z,1.40
2022-08-04T12:50:29.369Z,1.75
2022-08-04T12:53:02.542Z,1.60
2022-08-04T12:55:33.273Z,1.60
2022-08-04T12:58:02.680Z,1.73
2022-08-04T13:00:40.010Z,1.95
2022-08-04T13:03:11.839Z,1.52
2022-08-04T13:05:40.954Z,1.48
2022-08-04T13:08:09.092Z,1.80
2022-08-04T13:10:42.399Z,1.88
2022-08-04T13:13:16.616Z,1.80
2022-08-04T13:15:47.508Z,1.73
2022-08-04T13:18:29.553Z,2.10
2022-08-04T13:21:21.209Z,1.90
2022-08-04T13:26:58.341Z,1.90
2022-08-04T13:29:59.932Z,1.95
2022-08-04T13:30:25.050Z,1.92
2022-08-04T13:32:26.570Z,1.80
2022-08-04T13:34:55.876Z,2.05
2022-08-04T13:37:26.937Z,2.05
2022-08-04T13:39:56.380Z,2.00
2022-08-04T13:42:25.675Z,2.00
2022-08-04T13:44:56.070Z,1.85
2022-08-04T13:47:29.131Z,1.83
2022-08-04T13:50:23.502Z,1.83
2022-08-04T13:52:52.963Z,2.60
2022-08-04T13:55:25.644Z,1.98
2022-08-04T13:57:59.038Z,1.90
2022-08-04T14:00:29.135Z,1.55
2022-08-04T14:03:23.014Z,1.48
2022-08-04T14:06:07.895Z,1.80
2022-08-04T14:08:43.409Z,1.90
2022-08-04T14:11:11.030Z,1.77
2022-08-04T14:13:57.550Z,1.63
2022-08-04T14:16:24.587Z,1.30
2022-08-04T14:19:01.096Z,1.60
2022-08-04T14:21:28.172Z,1.73
2022-08-04T14:23:57.138Z,1.88
2022-08-04T14:26:31.500Z,1.80
2022-08-04T14:29:27.282Z,1.77
2022-08-04T14:32:04.470Z,1.80
2022-08-04T14:34:41.444Z,1.95
2022-08-04T14:37:17.662Z,2.20
2022-08-04T14:40:19.186Z,1.77
2022-08-04T14:42:55.286Z,2.22
2022-08-04T14:45:33.038Z,2.03
2022-08-04T14:48:02.126Z,1.88
2022-08-04T14:50:43.826Z,1.75
2022-08-04T14:53:17.714Z,1.67
2022-08-04T14:55:49.838Z,1.98
2022-08-04T14:58:34.000Z,2.00
2022-08-04T15:01:10.080Z,1.70
2022-08-04T15:03:50.205Z,2.05
2022-08-04T15:06:23.268Z,1.80
2022-08-04T15:08:51.901Z,2.03
2022-08-04T15:11:23.282Z,2.17
2022-08-04T15:13:50.908Z,1.75
2022-08-04T15:16:17.511Z,2.00
2022-08-04T15:18:44.146Z,1.95
2022-08-04T15:21:16.472Z,1.73
2022-08-04T15:23:43.008Z,2.15
2022-08-04T15:26:13.652Z,1.77
2022-08-04T15:28:44.852Z,1.60
2022-08-04T15:32:05.591Z,1.50
2022-08-04T15:34:02.473Z,1.58
2022-08-04T15:36:43.307Z,1.88
2022-08-04T15:39:09.828Z,1.88
2022-08-04T15:42:09.034Z,1.45
2022-08-04T15:44:51.602Z,1.50
2022-08-04T15:47:18.547Z,1.60
2022-08-04T15:49:46.132Z,1.55
2022-08-04T15:52:16.031Z,1.60
2022-08-04T15:54:52.508Z,1.80
2022-08-04T15:57:57.412Z,1.70
2022-08-04T16:00:23.943Z,1.70
2022-08-04T16:02:50.684Z,1.60
2022-08-04T16:05:17.130Z,1.70
2022-08-04T16:08:11.207Z,1.65
2022-08-04T16:10:39.914Z,2.58
2022-08-04T16:13:14.817Z,1.50
2022-08-04T16:15:44.888Z,1.83
2022-08-04T16:18:26.638Z,1.42
2022-08-04T16:20:59.211Z,1.63
2022-08-04T16:23:58.114Z,1.67
2022-08-04T16:26:36.610Z,2.22
2022-08-04T16:29:30.167Z,2.03
2022-08-04T16:32:06.370Z,1.95
2022-08-04T16:34:54.542Z,2.40
2022-08-04T16:37:25.203Z,2.20
2022-08-04T16:40:39.290Z,2.40
2022-08-04T16:43:13.085Z,1.83
2022-08-04T16:45:49.540Z,2.00
2022-08-04T16:48:22.039Z,1.80
2022-08-04T16:50:55.491Z,1.70
2022-08-04T16:53:52.373Z,1.55
2022-08-04T16:56:14.246Z,1.48
2022-08-04T16:58:50.677Z,1.85
2022-08-04T17:01:32.376Z,1.80
2022-08-04T17:04:04.942Z,2.15
2022-08-04T17:06:40.721Z,1.63
2022-08-04T17:09:13.512Z,1.92
2022-08-04T17:11:42.175Z,1.50
2022-08-04T17:14:09.378Z,1.60
2022-08-04T17:16:41.984Z,1.80
2022-08-04T17:19:24.112Z,2.15
2022-08-04T17:22:11.613Z,1.90
2022-08-04T17:24:40.465Z,1.70
2022-08-04T17:28:10.355Z,1.77
2022-08-04T17:29:54.379Z,1.65
2022-08-04T17:32:22.566Z,1.50
2022-08-04T17:35:00.017Z,1.60
2022-08-04T17:40:22.906Z,1.73
2022-08-04T17:44:01.178Z,1.80
2022-08-04T17:46:31.076Z,1.55
2022-08-04T17:49:19.265Z,1.58
2022-08-04T17:52:06.317Z,1.73
2022-08-04T17:54:36.513Z,2.38
2022-08-04T17:57:36.461Z,1.47
2022-08-04T18:00:03.760Z,1.48
2022-08-04T18:02:35.694Z,1.45
2022-08-04T18:05:07.993Z,1.60
2022-08-04T18:08:37.826Z,1.70
2022-08-04T18:10:52.575Z,1.48
2022-08-04T18:13:28.277Z,1.58
2022-08-04T18:16:02.991Z,1.80
2022-08-04T18:18:32.847Z,1.70
2022-08-04T18:21:03.410Z,1.58
2022-08-04T18:23:34.361Z,1.50
2022-08-04T18:26:09.978Z,1.50
2022-08-04T18:28:40.886Z,1.63
2022-08-04T18:31:09.585Z,1.58
2022-08-04T18:33:40.926Z,1.88
2022-08-04T18:36:34.559Z,1.40
2022-08-04T18:39:12.863Z,1.50
2022-08-04T18:42:02.139Z,1.50
2022-08-04T18:44:31.015Z,1.30
2022-08-04T18:46:57.983Z,1.67
2022-08-04T18:50:59.887Z,1.60
2022-08-04T18:52:34.278Z,1.85
2022-08-04T18:55:03.473Z,1.50
2022-08-04T18:57:58.351Z,1.95
2022-08-04T19:00:19.801Z,1.40
2022-08-04T19:02:46.971Z,1.77
2022-08-04T19:05:17.512Z,1.70
2022-08-04T19:08:01.795Z,1.63
2022-08-04T19:10:31.746Z,1.55
2022-08-04T19:13:05.648Z,2.00
2022-08-04T19:15:52.593Z,1.75
2022-08-04T19:18:21.530Z,2.20
2022-08-04T19:20:52.016Z,2.00
2022-08-04T19:24:27.130Z,2.42
2022-08-04T19:26:17.958Z,1.70
2022-08-04T19:28:54.323Z,2.00
2022-08-04T19:31:34.077Z,2.15
2022-08-04T19:34:07.256Z,2.28
2022-08-04T19:36:36.007Z,2.05
2022-08-04T19:39:09.403Z,2.08
2022-08-04T19:42:05.877Z,1.98
2022-08-04T19:44:30.184Z,2.13
2022-08-04T19:47:00.668Z,2.08
2022-08-04T19:50:04.745Z,2.17
2022-08-04T19:52:15.338Z,2.45
2022-08-04T19:55:00.947Z,2.45
2022-08-04T19:57:37.915Z,2.20
2022-08-04T20:00:13.202Z,2.20
2022-08-04T20:02:45.200Z,2.10
2022-08-04T20:05:12.742Z,2.53
2022-08-04T20:07:39.744Z,1.90
2022-08-04T20:10:08.389Z,2.05
2022-08-04T20:12:42.224Z,2.08
2022-08-04T20:15:10.929Z,2.00
2022-08-04T20:18:07.818Z,1.88
2022-08-04T20:20:33.570Z,2.67
2022-08-04T20:23:01.135Z,2.20
2022-08-04T20:25:37.395Z,2.08
2022-08-04T20:28:05.695Z,2.17
2022-08-04T20:30:33.438Z,2.22
2022-08-04T20:33:04.180Z,1.95
2022-08-04T20:35:32.461Z,2.40
2022-08-04T20:38:33.568Z,2.10
2022-08-04T20:41:00.763Z,2.42
2022-08-04T20:43:27.862Z,2.42
2022-08-04T20:45:59.611Z,2.35
2022-08-04T20:48:33.595Z,2.10
2022-08-04T20:51:00.452Z,2.20
2022-08-04T20:56:19.054Z,2.45
2022-08-04T20:58:56.828Z,2.70
2022-08-04T21:01:23.384Z,2.60
2022-08-04T21:04:15.299Z,2.85
2022-08-04T21:06:58.711Z,2.28
2022-08-04T21:09:37.799Z,2.13
2022-08-04T21:12:09.848Z,2.35
2022-08-04T21:14:36.359Z,2.22
2022-08-04T21:17:04.084Z,2.70
2022-08-04T21:19:34.071Z,2.30
2022-08-04T21:22:04.742Z,2.40
2022-08-04T21:24:31.277Z,2.30
2022-08-04T21:26:58.444Z,2.35
2022-08-04T21:29:34.766Z,2.97
2022-08-04T21:32:07.815Z,2.28
2022-08-04T21:34:38.530Z,2.40
2022-08-04T21:37:11.344Z,2.17
2022-08-04T21:39:58.038Z,2.92
2022-08-04T21:42:29.073Z,2.67
2022-08-04T21:45:09.597Z,2.70
2022-08-04T21:47:46.663Z,2.78
2022-08-04T21:50:20.040Z,2.80
2022-08-04T21:52:47.790Z,2.77
2022-08-04T21:55:14.224Z,2.72
2022-08-04T21:57:42.052Z,2.95
2022-08-04T22:00:18.236Z,2.78
2022-08-04T22:02:45.179Z,2.40
2022-08-04T22:05:11.905Z,2.53
2022-08-04T22:07:49.786Z,2.50
2022-08-04T22:10:18.589Z,2.40
2022-08-04T22:12:59.084Z,2.72
2022-08-04T22:16:03.997Z,3.15
2022-08-04T22:18:12.117Z,2.35
2022-08-04T22:20:38.933Z,2.45
2022-08-04T22:23:16.978Z,2.83
2022-08-04T22:25:55.539Z,2.20
2022-08-04T22:28:27.114Z,2.03
2022-08-04T22:30:56.267Z,2.38
2022-08-04T22:33:23.132Z,3.17
2022-08-04T22:35:50.071Z,2.38
2022-08-04T22:38:35.859Z,2.45
2022-08-04T22:41:14.375Z,2.28
2022-08-04T22:43:41.444Z,2.85
2022-08-04T22:46:12.202Z,2.80
2022-08-04T22:51:10.033Z,3.10
2022-08-04T22:53:39.846Z,2.70
2022-08-04T22:56:10.663Z,2.17
2022-08-04T22:58:45.155Z,2.70
2022-08-04T23:01:17.719Z,2.67
2022-08-04T23:03:55.445Z,3.10
2022-08-04T23:06:25.191Z,2.60
2022-08-04T23:08:52.535Z,2.70
2022-08-04T23:11:19.190Z,2.80
2022-08-04T23:13:45.924Z,2.90
2022-08-04T23:16:13.952Z,2.80
2022-08-04T23:18:42.095Z,2.67
2022-08-04T23:21:11.077Z,2.70
2022-08-04T23:23:45.412Z,2.97
2022-08-04T23:26:27.399Z,2.55
2022-08-04T23:28:55.192Z,2.85
2022-08-04T23:31:21.716Z,2.83
2022-08-04T23:33:49.152Z,2.80
2022-08-04T23:36:18.660Z,2.30
2022-08-04T23:38:45.285Z,2.20
2022-08-04T23:41:17.128Z,2.70
2022-08-04T23:43:54.962Z,2.67
2022-08-04T23:46:22.576Z,2.83
2022-08-04T23:48:49.367Z,2.92
2022-08-04T23:51:16.435Z,3.00
2022-08-04T23:54:02.152Z,2.75
2022-08-04T23:56:32.646Z,2.47
2022-08-04T23:59:00.208Z,2.15
